createdAt,value
2023-03-05T00:02:32.149Z,100862.81
2023-03-05T00:07:33.592Z,100862.84
2023-03-05T00:12:35.111Z,100867.06
2023-03-05T00:17:36.559Z,100867.06
2023-03-05T00:22:37.989Z,100863.72
2023-03-05T00:27:39.609Z,100856.97
2023-03-05T00:32:41.074Z,100854.47
2023-03-05T00:37:42.795Z,100853.59
2023-03-05T00:42:44.253Z,100851.94
2023-03-05T00:47:45.727Z,100840.16
2023-03-05T00:52:47.183Z,100839.31
2023-03-05T00:57:48.602Z,100832.59
2023-03-05T01:02:50.124Z,100822.47
2023-03-05T01:07:55.923Z,100819.13
2023-03-05T01:12:57.578Z,100817.44
2023-03-05T01:17:59.036Z,100807.34
2023-03-05T01:23:01.705Z,100809.88
2023-03-05T01:28:03.713Z,100803.97
2023-03-05T01:33:05.172Z,100798.91
2023-03-05T01:38:07.271Z,100793.00
2023-03-05T01:43:11.393Z,100795.53
2023-03-05T01:48:12.855Z,100785.41
2023-03-05T01:53:14.351Z,100781.19
2023-03-05T01:58:15.812Z,100771.09
2023-03-05T02:03:17.437Z,100771.09
2023-03-05T02:08:22.112Z,100765.22
2023-03-05T02:13:27.270Z,100766.88
2023-03-05T02:18:28.805Z,100763.53
2023-03-05T02:23:36.585Z,100765.22
2023-03-05T02:28:51.952Z,100755.94
2023-03-05T02:33:54.094Z,100755.09
2023-03-05T02:38:57.392Z,100750.03
2023-03-05T02:43:58.862Z,100742.44
2023-03-05T02:49:00.698Z,100737.44
2023-03-05T02:54:02.146Z,100739.13
2023-03-05T02:59:03.907Z,100729.03
2023-03-05T03:04:05.726Z,100725.66
2023-03-05T03:09:07.195Z,100720.63
2023-03-05T03:14:08.835Z,100718.97
2023-03-05T03:19:10.302Z,100708.88
2023-03-05T03:24:11.750Z,100702.19
2023-03-05T03:29:13.147Z,100700.53
2023-03-05T03:34:15.864Z,100697.19
2023-03-05T03:39:17.617Z,100702.22
2023-03-05T03:44:20.787Z,100688.78
2023-03-05T03:49:25.141Z,100694.66
2023-03-05T03:54:26.597Z,100685.41
2023-03-05T03:59:28.172Z,100683.72
2023-03-05T04:04:30.354Z,100679.56
2023-03-05T04:09:31.825Z,100674.53
2023-03-05T04:14:33.324Z,100670.31
2023-03-05T04:19:36.835Z,100670.31
2023-03-05T04:24:38.765Z,100665.31
2023-03-05T04:29:40.168Z,100662.78
2023-03-05T04:34:41.614Z,100657.75
2023-03-05T04:39:43.726Z,100653.53
2023-03-05T04:44:45.360Z,100655.19
2023-03-05T04:49:46.930Z,100648.47
2023-03-05T04:54:48.440Z,100652.69
2023-03-05T04:59:49.904Z,100649.31
2023-03-05T05:04:54.722Z,100647.63
2023-03-05T05:09:56.135Z,100639.22
2023-03-05T05:14:58.027Z,100635.03
2023-03-05T05:20:00.572Z,100638.41
2023-03-05T05:25:02.139Z,100633.38
2023-03-05T05:30:04.519Z,100627.47
2023-03-05T05:35:06.484Z,100632.50
2023-03-05T05:40:09.522Z,100629.13
2023-03-05T05:45:12.058Z,100634.16
2023-03-05T05:50:14.481Z,100630.78
2023-03-05T05:55:16.084Z,100634.94
2023-03-05T06:00:17.913Z,100640.03
2023-03-05T06:05:19.509Z,100634.16
2023-03-05T06:10:20.999Z,100629.09
2023-03-05T06:15:22.421Z,100631.63
2023-03-05T06:20:23.946Z,100632.47
2023-03-05T06:25:25.373Z,100634.16
2023-03-05T06:30:26.846Z,100627.41
2023-03-05T06:35:28.333Z,100629.91
2023-03-05T06:40:29.793Z,100625.72
2023-03-05T06:45:31.347Z,100620.69
2023-03-05T06:50:36.550Z,100624.06
2023-03-05T06:55:39.752Z,100618.16
2023-03-05T07:00:41.514Z,100612.31
2023-03-05T07:05:43.699Z,100619.00
2023-03-05T07:10:45.201Z,100616.44
2023-03-05T07:15:46.613Z,100614.75
2023-03-05T07:20:48.115Z,100616.41
2023-03-05T07:25:49.497Z,100606.34
2023-03-05T07:31:05.554Z,100604.63
2023-03-05T07:36:11.514Z,100602.94
2023-03-05T07:41:19.641Z,100607.09
2023-03-05T07:46:24.750Z,100603.72
2023-03-05T07:51:27.316Z,100605.31
2023-03-05T07:56:35.287Z,100606.84
2023-03-05T08:01:37.380Z,100605.03
2023-03-05T08:06:40.963Z,100588.88
2023-03-05T08:11:42.804Z,100587.94
2023-03-05T08:16:46.313Z,100587.94
2023-03-05T08:21:48.665Z,100586.16
2023-03-05T08:26:50.080Z,100584.56
2023-03-05T08:31:53.614Z,100585.28
2023-03-05T08:36:55.204Z,100581.91
2023-03-05T08:41:56.761Z,100582.69
2023-03-05T08:46:58.212Z,100574.22
2023-03-05T08:51:59.672Z,100577.41
2023-03-05T08:57:01.446Z,100569.72
2023-03-05T09:02:04.361Z,100566.19
2023-03-05T09:07:06.001Z,100567.03
2023-03-05T09:12:07.725Z,100559.44
2023-03-05T09:17:09.325Z,100561.28
2023-03-05T09:22:10.736Z,100565.22
2023-03-05T09:27:12.805Z,100553.50
2023-03-05T09:32:14.394Z,100544.50
2023-03-05T09:37:15.877Z,100547.06
2023-03-05T09:42:41.716Z,100543.47
2023-03-05T09:48:06.478Z,100534.94
2023-03-05T09:53:21.805Z,100542.53
2023-03-05T09:58:33.884Z,100542.66
2023-03-05T10:03:58.031Z,100539.88
2023-03-05T10:09:28.330Z,100525.97
2023-03-05T10:14:35.627Z,100531.56
2023-03-05T10:19:51.699Z,100526.78
2023-03-05T10:25:05.366Z,100515.22
2023-03-05T10:30:29.196Z,100518.31
2023-03-05T10:35:45.472Z,100513.09
2023-03-05T10:40:51.241Z,100504.25
2023-03-05T10:45:54.023Z,100500.75
2023-03-05T10:51:13.479Z,100489.28
2023-03-05T10:56:15.880Z,100484.16
2023-03-05T11:01:24.316Z,100480.72
2023-03-05T11:06:41.832Z,100476.63
2023-03-05T11:11:43.618Z,100468.44
2023-03-05T11:16:50.887Z,100463.72
2023-03-05T11:22:20.528Z,100449.44
2023-03-05T11:27:43.081Z,100443.25
2023-03-05T11:32:44.557Z,100433.47
2023-03-05T11:38:00.758Z,100435.44
2023-03-05T11:43:03.964Z,100443.50
2023-03-05T11:48:28.385Z,100430.38
2023-03-05T11:53:35.895Z,100424.66
2023-03-05T11:59:04.682Z,100424.91
2023-03-05T12:04:08.536Z,100413.03
2023-03-05T12:09:18.675Z,100411.38
2023-03-05T12:14:28.771Z,100393.59
2023-03-05T12:19:39.380Z,100388.53
2023-03-05T12:24:41.182Z,100376.84
2023-03-05T12:29:49.241Z,100361.19
2023-03-05T12:35:26.107Z,100366.50
2023-03-05T12:40:29.015Z,100344.28
2023-03-05T12:45:36.412Z,100336.59
2023-03-05T12:50:37.745Z,100327.31
2023-03-05T12:55:48.289Z,100328.47
2023-03-05T13:00:54.551Z,100319.72
2023-03-05T13:05:58.811Z,100315.00
2023-03-05T13:11:01.232Z,100315.91
2023-03-05T13:16:03.842Z,100317.31
2023-03-05T13:21:08.137Z,100309.84
2023-03-05T13:26:15.475Z,100308.06
2023-03-05T13:31:19.329Z,100311.44
2023-03-05T13:36:24.032Z,100301.22
2023-03-05T13:41:27.738Z,100296.72
2023-03-05T13:46:39.229Z,100289.84
2023-03-05T13:51:42.789Z,100285.63
2023-03-05T13:57:00.200Z,100283.31
2023-03-05T14:02:05.848Z,100275.91
2023-03-05T14:07:24.444Z,100274.59
2023-03-05T14:12:35.637Z,100262.69
2023-03-05T14:17:43.688Z,100261.78
2023-03-05T14:22:48.443Z,100255.91
2023-03-05T14:27:49.902Z,100241.38
2023-03-05T14:32:55.474Z,100240.44
2023-03-05T14:37:59.270Z,100230.38
2023-03-05T14:43:10.796Z,100222.59
2023-03-05T14:48:15.145Z,100221.00
2023-03-05T14:53:38.637Z,100215.88
2023-03-05T14:58:40.174Z,100204.22
2023-03-05T15:03:41.666Z,100195.16
2023-03-05T15:08:43.200Z,100197.63
2023-03-05T15:13:44.658Z,100195.88
2023-03-05T15:18:46.209Z,100187.34
2023-03-05T15:23:47.651Z,100174.03
2023-03-05T15:28:49.861Z,100169.78
2023-03-05T15:33:51.289Z,100157.91
2023-03-05T15:38:52.676Z,100157.91
2023-03-05T15:43:54.106Z,100153.56
2023-03-05T15:48:55.520Z,100138.56
2023-03-05T15:53:57.919Z,100136.00
2023-03-05T15:58:59.831Z,100132.25
2023-03-05T16:04:01.726Z,100128.91
2023-03-05T16:09:04.909Z,100126.47
2023-03-05T16:14:09.755Z,100112.16
2023-03-05T16:19:15.743Z,100115.66
2023-03-05T16:24:17.670Z,100103.69
2023-03-05T16:29:19.264Z,100106.03
2023-03-05T16:34:20.850Z,100094.53
2023-03-05T16:39:22.608Z,100085.19
2023-03-05T16:44:24.036Z,100081.81
2023-03-05T16:49:25.527Z,100077.78
2023-03-05T16:54:27.183Z,100074.38
2023-03-05T16:59:29.578Z,100076.81
2023-03-05T17:04:31.119Z,100068.56
2023-03-05T17:09:32.940Z,100078.78
2023-03-05T17:14:34.480Z,100068.78
2023-03-05T17:19:35.994Z,100073.06
2023-03-05T17:24:38.379Z,100077.34
2023-03-05T17:29:39.892Z,100081.44
2023-03-05T17:34:41.645Z,100079.75
2023-03-05T17:39:43.261Z,100079.75
2023-03-05T17:44:44.696Z,100083.94
2023-03-05T17:49:46.128Z,100071.41
2023-03-05T17:54:48.925Z,100066.69
2023-03-05T17:59:50.438Z,100071.78
2023-03-05T18:04:52.144Z,100073.53
2023-03-05T18:09:53.541Z,100072.66
2023-03-05T18:14:54.919Z,100060.03
2023-03-05T18:19:56.691Z,100069.25
2023-03-05T18:24:58.182Z,100057.53
2023-03-05T18:29:59.584Z,100056.66
2023-03-05T18:35:01.024Z,100053.34
2023-03-05T18:40:03.165Z,100044.06
2023-03-05T18:45:06.436Z,100050.81
2023-03-05T18:50:14.690Z,100038.94
2023-03-05T18:55:20.284Z,100032.16
2023-03-05T19:00:25.334Z,100028.03
2023-03-05T19:05:26.943Z,100029.03
2023-03-05T19:10:28.475Z,100033.41
2023-03-05T19:15:29.925Z,100026.78
2023-03-05T19:20:31.444Z,100031.09
2023-03-05T19:25:33.400Z,100022.78
2023-03-05T19:30:35.947Z,100024.50
2023-03-05T19:35:37.669Z,100016.19
2023-03-05T19:40:41.477Z,100012.06
2023-03-05T19:45:43.176Z,100002.06
2023-03-05T19:50:44.564Z,99998.75
2023-03-05T19:55:45.952Z,100000.53
2023-03-05T20:00:47.500Z,100003.09
2023-03-05T20:05:48.919Z,99991.34
2023-03-05T20:10:50.373Z,99991.38
2023-03-05T20:15:52.676Z,99988.94
2023-03-05T20:20:57.766Z,99986.44
2023-03-05T20:25:59.638Z,99980.59
2023-03-05T20:31:02.140Z,99984.03
2023-03-05T20:36:04.353Z,99980.66
2023-03-05T20:41:10.138Z,99975.66
2023-03-05T20:46:19.020Z,99979.03
2023-03-05T20:51:26.244Z,99971.44
2023-03-05T20:56:29.198Z,99969.75
2023-03-05T21:01:33.028Z,99967.97
2023-03-05T21:06:34.884Z,99958.84
2023-03-05T21:11:37.256Z,99947.06
2023-03-05T21:16:38.921Z,99947.16
2023-03-05T21:21:44.702Z,99946.38
2023-03-05T21:26:46.539Z,99942.19
2023-03-05T21:31:48.052Z,99933.88
2023-03-05T21:36:49.480Z,99928.81
2023-03-05T21:41:50.969Z,99922.13
2023-03-05T21:46:52.407Z,99913.75
2023-03-05T21:52:08.980Z,99903.75
2023-03-05T21:57:11.507Z,99899.59
2023-03-05T22:02:14.095Z,99891.22
2023-03-05T22:07:16.753Z,99884.50
2023-03-05T22:12:26.785Z,99874.44
2023-03-05T22:17:28.170Z,99862.59
2023-03-05T22:22:29.673Z,99859.22
2023-03-05T22:27:31.137Z,99862.50
2023-03-05T22:32:34.988Z,99847.38
2023-03-05T22:37:36.390Z,99845.72
2023-03-05T22:42:37.789Z,99838.16
2023-03-05T22:47:39.171Z,99825.63
2023-03-05T22:52:40.604Z,99819.78
2023-03-05T22:57:43.691Z,99812.94
2023-03-05T23:02:45.130Z,99817.03
2023-03-05T23:07:46.649Z,99806.09
2023-03-05T23:12:50.718Z,99808.69
2023-03-05T23:17:52.300Z,99802.94
2023-03-05T23:22:55.932Z,99790.34
2023-03-05T23:27:58.633Z,99787.03
2023-03-05T23:33:07.721Z,99779.47
2023-03-05T23:38:12.572Z,99771.19
2023-03-05T23:43:15.496Z,99768.78
2023-03-05T23:48:17.895Z,99772.31
2023-03-05T23:53:25.544Z,99768.13
2023-03-05T23:58:27.044Z,99763.03
